MSP weather

Minneapolis-St Paul International/Wold-Chamberlain Airport
Minneapolis, Minnesota, United States

Public forecast

Using degrees Fahrenheit for public forecast. Weather courtesy of forecast.io.

METAR (pilot weather report)

Retrieved 2018/06/19 07:53 UTC (10 minutes ago):

KMSP 190753Z 06007KT 10SM OVC033 20/18 A2997 RMK AO2 LTG DSNT S SLP146 T02000178

TAF (pilot weather forecast)

Retrieved 2018/06/19 06:22 UTC (2 hours ago):

TAF KMSP 190520Z 1906/2012 06008KT P6SM VCSH BKN060 FM190900 07009KT P6SM -SHRA SCT020 OVC040 FM191400 08010KT P6SM VCSH OVC025 FM191800 09010G17KT P6SM SCT030 OVC050 FM200200 04006KT P6SM SCT020 OVC040 FM200500 07006KT P6SM BKN040